createdAt,value
2023-01-23T00:02:13.114Z,100.00
2023-01-23T00:07:14.700Z,100.00
2023-01-23T00:12:16.392Z,100.00
2023-01-23T00:17:17.948Z,100.00
2023-01-23T00:22:19.472Z,100.00
2023-01-23T00:27:21.144Z,100.00
2023-01-23T00:32:22.933Z,100.00
2023-01-23T00:37:24.492Z,100.00
2023-01-23T00:42:26.090Z,100.00
2023-01-23T00:47:27.743Z,100.00
2023-01-23T00:52:30.283Z,100.00
2023-01-23T00:57:31.860Z,100.00
2023-01-23T01:02:33.705Z,100.00
2023-01-23T01:07:35.559Z,100.00
2023-01-23T01:12:37.380Z,100.00
2023-01-23T01:17:39.212Z,100.00
2023-01-23T01:22:40.751Z,100.00
2023-01-23T01:27:42.367Z,100.00
2023-01-23T01:32:44.572Z,100.00
2023-01-23T01:37:46.600Z,100.00
2023-01-23T01:42:53.629Z,100.00
2023-01-23T01:47:55.429Z,100.00
2023-01-23T01:52:57.025Z,100.00
2023-01-23T01:57:58.915Z,100.00
2023-01-23T02:03:03.410Z,100.00
2023-01-23T02:08:32.596Z,100.00
2023-01-23T02:13:37.138Z,100.00
2023-01-23T02:18:44.562Z,100.00
2023-01-23T02:23:52.305Z,100.00
2023-01-23T02:28:59.319Z,100.00
2023-01-23T02:34:05.914Z,100.00
2023-01-23T02:39:13.410Z,100.00
2023-01-23T02:44:27.399Z,100.00
2023-01-23T02:49:34.127Z,100.00
2023-01-23T02:54:40.381Z,100.00
2023-01-23T03:00:00.699Z,100.00
2023-01-23T03:05:02.836Z,100.00
2023-01-23T03:10:07.486Z,100.00
2023-01-23T03:15:10.145Z,100.00
2023-01-23T03:20:11.884Z,100.00
2023-01-23T03:25:13.811Z,100.00
2023-01-23T03:30:17.259Z,100.00
2023-01-23T03:35:22.084Z,100.00
2023-01-23T03:40:45.445Z,100.00
2023-01-23T03:45:50.309Z,100.00
2023-01-23T03:50:53.085Z,100.00
2023-01-23T03:55:56.198Z,100.00
2023-01-23T04:01:01.375Z,100.00
2023-01-23T04:06:03.403Z,100.00
2023-01-23T04:11:08.397Z,100.00
2023-01-23T04:16:10.070Z,100.00
2023-01-23T04:21:11.896Z,100.00
2023-01-23T04:26:14.461Z,100.00
2023-01-23T04:31:16.444Z,100.00
2023-01-23T04:36:18.273Z,100.00
2023-01-23T04:41:25.923Z,100.00
2023-01-23T04:46:34.896Z,100.00
2023-01-23T04:51:44.472Z,100.00
2023-01-23T04:56:46.825Z,100.00
2023-01-23T05:01:49.807Z,100.00
2023-01-23T05:06:51.968Z,100.00
2023-01-23T05:11:53.930Z,100.00
2023-01-23T05:16:58.020Z,100.00
2023-01-23T05:22:10.259Z,100.00
2023-01-23T05:27:12.938Z,100.00
2023-01-23T05:32:17.256Z,100.00
2023-01-23T05:37:20.374Z,100.00
2023-01-23T05:42:25.802Z,100.00
2023-01-23T05:47:37.276Z,100.00
2023-01-23T05:52:41.067Z,100.00
2023-01-23T05:57:42.682Z,100.00
2023-01-23T06:03:08.921Z,100.00
2023-01-23T06:08:29.103Z,100.00
2023-01-23T06:13:31.421Z,100.00
2023-01-23T06:18:33.308Z,100.00
2023-01-23T06:23:34.888Z,100.00
2023-01-23T06:28:37.350Z,100.00
2023-01-23T06:33:41.170Z,100.00
2023-01-23T06:38:46.017Z,100.00
2023-01-23T06:43:49.921Z,100.00
2023-01-23T06:48:56.639Z,100.00
2023-01-23T06:53:58.702Z,100.00
2023-01-23T06:59:00.696Z,100.00
2023-01-23T07:04:06.196Z,100.00
2023-01-23T07:09:08.022Z,100.00
2023-01-23T07:14:10.985Z,100.00
2023-01-23T07:19:14.147Z,100.00
2023-01-23T07:24:17.239Z,100.00
2023-01-23T07:29:18.779Z,100.00
2023-01-23T07:34:20.337Z,100.00
2023-01-23T07:39:21.947Z,100.00
2023-01-23T07:44:23.644Z,100.00
2023-01-23T07:49:25.275Z,100.00
2023-01-23T07:54:26.844Z,100.00
2023-01-23T07:59:28.423Z,100.00
2023-01-23T08:04:29.987Z,100.00
2023-01-23T08:09:31.670Z,100.00
2023-01-23T08:14:33.229Z,100.00
2023-01-23T08:19:34.759Z,100.00
2023-01-23T08:24:36.522Z,100.00
2023-01-23T08:29:38.051Z,100.00
2023-01-23T08:34:39.605Z,100.00
2023-01-23T08:39:41.168Z,100.00
2023-01-23T08:44:44.918Z,100.00
2023-01-23T08:49:46.527Z,100.00
2023-01-23T08:54:48.056Z,100.00
2023-01-23T08:59:49.619Z,100.00
2023-01-23T09:04:51.198Z,100.00
2023-01-23T09:09:54.944Z,100.00
2023-01-23T09:14:56.483Z,100.00
2023-01-23T09:20:00.494Z,100.00
2023-01-23T09:25:02.374Z,100.00
2023-01-23T09:30:04.581Z,100.00
2023-01-23T09:35:06.594Z,100.00
2023-01-23T09:40:16.899Z,100.00
2023-01-23T09:45:24.795Z,100.00
2023-01-23T09:50:26.433Z,100.00
2023-01-23T09:55:44.135Z,100.00
2023-01-23T10:00:46.500Z,100.00
2023-01-23T10:05:54.253Z,100.00
2023-01-23T10:11:08.517Z,100.00
2023-01-23T10:16:24.583Z,100.00
2023-01-23T10:21:38.930Z,100.00
2023-01-23T10:26:45.067Z,100.00
2023-01-23T10:31:58.608Z,100.00
2023-01-23T10:37:12.206Z,100.00
2023-01-23T10:42:14.270Z,100.00
2023-01-23T10:47:42.564Z,100.00
2023-01-23T10:52:46.077Z,100.00
2023-01-23T10:57:49.776Z,100.00
2023-01-23T11:02:51.426Z,100.00
2023-01-23T11:07:56.032Z,100.00
2023-01-23T11:13:00.646Z,100.00
2023-01-23T11:18:02.375Z,100.00
2023-01-23T11:23:15.849Z,100.00
2023-01-23T11:28:36.678Z,100.00
2023-01-23T11:33:57.203Z,99.21
2023-01-23T11:39:34.670Z,97.71
2023-01-23T11:44:45.642Z,95.79
2023-01-23T11:50:18.058Z,95.77
2023-01-23T11:55:42.334Z,95.55
2023-01-23T12:00:49.542Z,95.23
2023-01-23T12:06:03.539Z,96.70
2023-01-23T12:11:17.110Z,96.94
2023-01-23T12:16:30.834Z,95.84
2023-01-23T12:21:41.182Z,95.05
2023-01-23T12:27:24.312Z,94.71
2023-01-23T12:32:43.002Z,94.03
2023-01-23T12:38:16.155Z,94.64
2023-01-23T12:43:38.174Z,93.65
2023-01-23T12:48:53.851Z,93.94
2023-01-23T12:53:58.603Z,93.17
2023-01-23T12:59:14.252Z,93.37
2023-01-23T13:04:48.046Z,94.44
2023-01-23T13:10:47.505Z,94.70
2023-01-23T13:16:04.481Z,93.37
2023-01-23T13:21:29.291Z,93.40
2023-01-23T13:26:30.965Z,94.36
2023-01-23T13:31:36.061Z,94.82
2023-01-23T13:36:38.160Z,95.23
2023-01-23T13:41:39.840Z,96.08
2023-01-23T14:20:23.818Z,95.05
2023-01-23T14:25:26.927Z,94.19
2023-01-23T14:30:30.352Z,93.54
2023-01-23T14:35:32.973Z,93.99
2023-01-23T14:40:47.118Z,94.21
2023-01-23T14:46:22.237Z,95.16
2023-01-23T14:51:26.653Z,94.94
2023-01-23T14:56:33.165Z,95.97
2023-01-23T15:01:35.968Z,96.35
2023-01-23T15:06:37.863Z,96.29
2023-01-23T15:11:39.567Z,95.36
2023-01-23T15:16:43.581Z,95.51
2023-01-23T15:21:45.200Z,95.97
2023-01-23T15:26:57.923Z,96.35
2023-01-23T15:32:01.055Z,96.85
2023-01-23T15:37:21.879Z,97.47
2023-01-23T15:42:27.665Z,97.54
2023-01-23T15:47:31.036Z,97.64
2023-01-23T15:52:50.696Z,97.62
2023-01-23T15:57:53.530Z,97.63
2023-01-23T16:02:57.707Z,98.01
2023-01-23T16:08:04.437Z,98.27
2023-01-23T16:13:07.823Z,98.32
2023-01-23T16:18:09.854Z,98.57
2023-01-23T16:23:16.191Z,98.29
2023-01-23T16:28:19.319Z,98.86
2023-01-23T16:33:21.938Z,98.30
2023-01-23T16:38:27.199Z,98.37
2023-01-23T16:43:28.777Z,98.12
2023-01-23T16:48:30.337Z,99.00
2023-01-23T16:53:36.567Z,99.27
2023-01-23T16:58:40.041Z,99.22
2023-01-23T17:03:42.266Z,99.99
2023-01-23T17:08:43.950Z,100.00
2023-01-23T17:13:45.637Z,100.00
2023-01-23T17:18:47.389Z,100.00
2023-01-23T17:23:49.078Z,100.00
2023-01-23T17:28:50.705Z,100.00
2023-01-23T17:33:52.721Z,100.00
2023-01-23T17:39:00.439Z,100.00
2023-01-23T17:44:01.988Z,100.00
2023-01-23T17:49:04.341Z,100.00
2023-01-23T17:54:09.715Z,100.00
2023-01-23T17:59:11.818Z,100.00
2023-01-23T18:04:22.090Z,100.00
2023-01-23T18:09:23.631Z,100.00
2023-01-23T18:15:03.532Z,100.00
2023-01-23T18:20:16.548Z,100.00
2023-01-23T18:25:26.078Z,100.00
2023-01-23T18:30:41.694Z,100.00
2023-01-23T18:36:06.334Z,100.00
2023-01-23T18:41:21.081Z,100.00
2023-01-23T18:46:27.895Z,100.00
2023-01-23T18:51:41.307Z,100.00
2023-01-23T18:56:55.779Z,100.00
2023-01-23T19:02:21.358Z,100.00
2023-01-23T19:07:23.188Z,100.00
2023-01-23T19:13:06.339Z,100.00
2023-01-23T19:18:40.349Z,100.00
2023-01-23T19:24:06.905Z,100.00
2023-01-23T19:29:21.064Z,100.00
2023-01-23T19:34:23.788Z,100.00
2023-01-23T19:39:25.381Z,100.00
2023-01-23T19:44:28.972Z,100.00
2023-01-23T19:49:30.565Z,100.00
2023-01-23T19:54:32.119Z,100.00
2023-01-23T19:59:33.713Z,100.00
2023-01-23T20:04:35.284Z,100.00
2023-01-23T20:09:36.800Z,100.00
2023-01-23T20:14:38.353Z,100.00
2023-01-23T20:19:40.202Z,100.00
2023-01-23T20:24:41.714Z,100.00
2023-01-23T20:29:43.247Z,100.00
2023-01-23T20:34:44.864Z,100.00
2023-01-23T20:39:46.523Z,100.00
2023-01-23T20:44:48.085Z,100.00
2023-01-23T20:49:49.690Z,100.00
2023-01-23T20:54:51.315Z,100.00
2023-01-23T20:59:52.845Z,100.00
2023-01-23T21:04:54.446Z,100.00
2023-01-23T21:09:55.962Z,100.00
2023-01-23T21:14:57.489Z,100.00
2023-01-23T21:19:59.054Z,100.00
2023-01-23T21:25:00.621Z,100.00
2023-01-23T21:30:02.167Z,100.00
2023-01-23T21:35:03.849Z,100.00
2023-01-23T21:40:06.109Z,100.00
2023-01-23T21:45:08.266Z,100.00
2023-01-23T21:50:10.406Z,100.00
2023-01-23T21:55:11.971Z,100.00
2023-01-23T22:00:32.337Z,100.00
2023-01-23T22:05:36.598Z,100.00
2023-01-23T22:10:38.266Z,100.00
2023-01-23T22:15:39.835Z,100.00
2023-01-23T22:20:41.351Z,100.00
2023-01-23T22:25:42.899Z,100.00
2023-01-23T22:30:44.464Z,100.00
2023-01-23T22:35:46.177Z,100.00
2023-01-23T22:41:00.006Z,100.00
2023-01-23T22:46:15.940Z,100.00
2023-01-23T22:51:24.611Z,100.00
2023-01-23T22:56:28.134Z,100.00
2023-01-23T23:01:30.156Z,100.00
2023-01-23T23:06:31.732Z,100.00
2023-01-23T23:11:33.430Z,100.00
2023-01-23T23:16:35.026Z,100.00
2023-01-23T23:21:37.843Z,100.00
2023-01-23T23:26:39.388Z,100.00
2023-01-23T23:31:41.343Z,100.00
2023-01-23T23:36:43.073Z,100.00
2023-01-23T23:41:44.657Z,100.00
2023-01-23T23:46:46.545Z,100.00
2023-01-23T23:51:48.102Z,100.00
2023-01-23T23:56:49.721Z,100.00
